Terminal Aerodrome Forecast
Issued by NWS

Current Version | Previous Version | Text Only | Print | Product List | Glossary On
Versions: 1 2 3 4 5 6 7 8 9 10 11 12 13 14 15 16 17
000
FTUS43 KJKL 040530
TAFSJS
TAF
KSJS 040530Z 0406/0506 23006KT 5SM RA BKN007 OVC012
     FM041100 35008KT 1SM +SHRA BR OVC005
     FM050200 22008KT 3SM -RAPL BR OVC004=

USA.gov is the U.S. government's official web portal to all federal, state and local government web resources and services.